Time;durP1;ratioP1;P1;durP2;ratioP2;P2;SDS_P1;SDS_P2;PMS_P1;PMS_P2;Temp;Humidity;BMP_temperature;BMP_pressure;BME280_temperature;BME280_humidity;BME280_pressure;Samples;Min_cycle;Max_cycle;Signal;HPM_P1;HPM_P2
2024/01/05 12:33:18;;;;;;;;;;;;;;;11.04;92.81;99860.02;106540;1254;74612;-79
2024/01/05 12:35:59;;;;;;;;;;;;;;;11.02;92.95;99863.17;106512;1253;66518;-83
2024/01/05 12:38:40;;;;;;;;;;;;;;;10.91;93.95;99866.55;106592;1253;74131;-79
2024/01/05 12:41:20;;;;;;;;;;;;;;;11.00;93.22;99868.92;106565;1251;63944;-83
2024/01/05 12:44:00;;;;;;;;;;;;;;;11.00;93.92;99875.61;106464;1253;61171;-83
2024/01/05 12:46:47;;;;;;;;;;;;;;;11.40;90.98;99879.86;106557;1254;74192;-79
2024/01/05 12:49:27;;;;;;;;;;;;;;;11.25;91.14;99887.09;106494;1254;70511;-80
2024/01/05 12:52:02;;;;;;;;;;;;;;;10.99;93.13;99893.88;106533;1253;73661;-84
2024/01/05 12:54:42;;;;;;;;;;;;;;;10.92;93.70;99897.54;106684;1255;61254;-82
2024/01/05 12:57:21;;;;;;;;;;;;;;;10.81;94.00;99904.30;105953;1253;61309;-82
2024/01/05 13:00:08;;;;;;;;;;;;;;;10.76;94.72;99916.02;106388;1253;74761;-78
2024/01/05 13:02:49;;;;;;;;;;;;;;;10.88;93.54;99918.64;106043;1253;69756;-78
2024/01/05 13:05:34;;;;;;;;;;;;;;;10.88;93.19;99924.81;105819;1257;75051;-78
2024/01/05 13:08:15;;;;;;;;;;;;;;;10.73;93.03;99932.06;106920;1257;63781;-79
2024/01/05 13:10:55;;;;;;;;;;;;;;;10.61;93.07;99941.51;106206;1253;61189;-82
2024/01/05 13:13:35;;;;;;;;;;;;;;;10.45;92.94;99952.95;106530;1253;75779;-79
2024/01/05 13:16:15;;;;;;;;;;;;;;;10.33;93.33;99961.33;106487;1253;68540;-79
2024/01/05 13:18:49;;;;;;;;;;;;;;;10.28;93.43;99971.81;106621;1253;71149;-83
2024/01/05 13:21:24;;;;;;;;;;;;;;;10.21;93.36;99974.84;106572;1253;60895;-80
2024/01/05 13:23:58;;;;;;;;;;;;;;;10.10;93.47;99986.05;106695;1253;62421;-79
2024/01/05 13:26:33;;;;;;;;;;;;;;;10.05;94.01;99991.55;106495;1256;76527;-79
2024/01/05 13:29:01;;;;;;;;;;;;;;;9.99;94.37;99996.75;106815;1253;70660;-79
2024/01/05 13:31:36;;;;;;;;;;;;;;;9.90;95.43;99998.99;107117;1253;75596;-79
2024/01/05 13:34:10;;;;;;;;;;;;;;;9.98;94.87;100002.10;106733;1253;61478;-83
2024/01/05 13:36:44;;;;;;;;;;;;;;;9.95;95.03;100003.11;106493;1253;61277;-81
2024/01/05 13:39:18;;;;;;;;;;;;;;;9.88;95.46;100010.05;106530;1251;76289;-79
2024/01/05 13:41:52;;;;;;;;;;;;;;;9.82;96.22;100011.89;106574;1253;70351;-79
2024/01/05 13:44:26;;;;;;;;;;;;;;;9.91;95.45;100016.23;106887;1253;74725;-84
2024/01/05 13:47:01;;;;;;;;;;;;;;;9.96;94.98;100014.13;106911;1254;62328;-80
2024/01/05 13:49:32;;;;;;;;;;;;;;;9.86;95.11;100016.66;108189;1251;61776;-79
2024/01/05 13:52:03;;;;;;;;;;;;;;;9.77;95.83;100021.54;107014;1253;73448;-81
2024/01/05 13:54:33;;;;;;;;;;;;;;;9.77;95.66;100028.02;107566;1253;67323;-83
2024/01/05 13:57:03;;;;;;;;;;;;;;;9.76;95.53;100032.39;107806;1253;73813;-78
2024/01/05 13:59:33;;;;;;;;;;;;;;;9.91;94.31;100037.46;106795;1253;62045;-83
2024/01/05 14:02:03;;;;;;;;;;;;;;;9.88;94.16;100045.63;106490;1253;61940;-79
2024/01/05 14:04:33;;;;;;;;;;;;;;;9.83;94.37;100046.27;106611;1257;76330;-78
2024/01/05 14:07:05;;;;;;;;;;;;;;;9.86;94.46;100047.38;105936;1253;70473;-78
2024/01/05 14:09:36;;;;;;;;;;;;;;;9.85;94.13;100050.95;106023;1253;75251;-79
2024/01/05 14:12:11;;;;;;;;;;;;;;;9.77;94.23;100051.92;106522;1253;61264;-78
2024/01/05 14:14:45;;;;;;;;;;;;;;;9.69;94.41;100059.46;106841;1255;61950;-83
2024/01/05 14:17:20;;;;;;;;;;;;;;;9.78;93.30;100064.52;106602;1257;72605;-79
2024/01/05 14:19:53;;;;;;;;;;;;;;;9.73;93.15;100076.73;106752;1253;67332;-83
2024/01/05 14:22:28;;;;;;;;;;;;;;;9.61;93.82;100079.96;106502;1256;71414;-80
2024/01/05 14:25:04;;;;;;;;;;;;;;;9.49;94.19;100087.73;106525;1253;61456;-82
2024/01/05 14:27:38;;;;;;;;;;;;;;;9.40;94.19;100094.98;106751;1253;61230;-84
2024/01/05 14:30:11;;;;;;;;;;;;;;;9.33;93.98;100109.63;106502;1253;76492;-83
2024/01/05 14:32:46;;;;;;;;;;;;;;;9.18;94.47;100120.15;106521;1253;69588;-82
2024/01/05 14:35:20;;;;;;;;;;;;;;;9.03;94.42;100124.11;106732;1251;74856;-82
2024/01/05 14:37:54;;;;;;;;;;;;;;;8.93;93.56;100131.13;106600;1254;61150;-79
2024/01/05 14:40:28;;;;;;;;;;;;;;;9.14;90.30;100138.70;108442;1253;61321;-79
2024/01/05 14:42:57;;;;;;;;;;;;;;;9.14;88.54;100143.50;106471;1251;75301;-83
2024/01/05 14:45:25;;;;;;;;;;;;;;;8.96;88.67;100154.88;106491;1253;69155;-79
2024/01/05 14:47:59;;;;;;;;;;;;;;;8.88;88.16;100161.33;106665;1255;73813;-79
2024/01/05 14:50:33;;;;;;;;;;;;;;;8.46;90.12;100165.88;106378;1253;61502;-80
2024/01/05 14:53:08;;;;;;;;;;;;;;;8.31;90.87;100174.00;106498;1251;61499;-80
2024/01/05 14:55:45;;;;;;;;;;;;;;;8.19;91.28;100183.13;106835;1253;74678;-80
2024/01/05 14:58:18;;;;;;;;;;;;;;;8.14;91.07;100190.15;106594;1253;70282;-85
2024/01/05 15:00:52;;;;;;;;;;;;;;;8.04;91.91;100197.80;106480;1257;74721;-81
2024/01/05 15:03:27;;;;;;;;;;;;;;;8.02;92.10;100205.85;106460;1257;61301;-85
2024/01/05 15:06:01;;;;;;;;;;;;;;;8.14;91.58;100218.57;106363;1253;61193;-81
2024/01/05 15:08:30;;;;;;;;;;;;;;;8.28;90.69;100228.84;106441;1253;78094;-80
2024/01/05 15:11:04;;;;;;;;;;;;;;;8.33;90.09;100241.05;106384;1258;68315;-85
2024/01/05 15:13:38;;;;;;;;;;;;;;;8.32;89.54;100249.80;108399;1253;73092;-86
2024/01/05 15:16:12;;;;;;;;;;;;;;;8.25;90.08;100257.46;106575;1254;61238;-85
2024/01/05 15:18:46;;;;;;;;;;;;;;;8.23;89.86;100260.11;106516;1253;61127;-85
2024/01/05 15:21:22;;;;;;;;;;;;;;;8.15;90.08;100266.86;106484;1253;77168;-80
2024/01/05 15:23:57;;;;;;;;;;;;;;;8.12;89.99;100275.89;106668;1251;71326;-84
2024/01/05 15:26:31;;;;;;;;;;;;;;;8.33;88.13;100281.28;106580;1257;75820;-85
2024/01/05 15:29:05;;;;;;;;;;;;;;;8.35;87.43;100290.86;106621;1253;61252;-85
2024/01/05 15:31:40;;;;;;;;;;;;;;;8.32;87.48;100298.64;106566;1254;61272;-81
2024/01/05 15:34:14;;;;;;;;;;;;;;;8.24;87.73;100304.28;107274;1256;75660;-80
2024/01/05 15:36:52;;;;;;;;;;;;;;;8.26;87.50;100316.16;106538;1253;66738;-80
2024/01/05 15:39:26;;;;;;;;;;;;;;;8.32;86.43;100321.50;106580;1251;73698;-87
2024/01/05 15:42:00;;;;;;;;;;;;;;;8.43;84.62;100330.89;106543;1253;61292;-81
2024/01/05 15:44:34;;;;;;;;;;;;;;;8.43;83.83;100336.71;106510;1251;61201;-80
2024/01/05 15:47:08;;;;;;;;;;;;;;;8.19;84.40;100344.88;106459;1253;77260;-88
2024/01/05 15:49:42;;;;;;;;;;;;;;;8.19;84.19;100349.11;106166;1253;70101;-86
2024/01/05 15:52:16;;;;;;;;;;;;;;;8.20;84.04;100353.04;106468;1253;74513;-80
2024/01/05 15:54:45;;;;;;;;;;;;;;;8.22;83.01;100358.60;106414;1257;61278;-80
2024/01/05 15:57:19;;;;;;;;;;;;;;;8.29;82.07;100366.53;106626;1252;61211;-80
2024/01/05 15:59:53;;;;;;;;;;;;;;;8.25;80.84;100379.79;106926;1257;73383;-80
2024/01/05 16:02:28;;;;;;;;;;;;;;;8.23;79.77;100392.63;106547;1258;71475;-80
2024/01/05 16:04:56;;;;;;;;;;;;;;;8.22;77.29;100394.00;106488;1251;74386;-79
2024/01/05 16:07:31;;;;;;;;;;;;;;;8.23;76.10;100389.91;106535;1253;61294;-85
2024/01/05 16:10:05;;;;;;;;;;;;;;;8.31;74.77;100393.44;106452;1252;61292;-79
2024/01/05 16:12:40;;;;;;;;;;;;;;;8.28;73.48;100389.88;106454;1258;76784;-79
2024/01/05 16:15:12;;;;;;;;;;;;;;;8.27;71.87;100398.00;107235;1257;69388;-79
2024/01/05 16:17:46;;;;;;;;;;;;;;;8.16;71.60;100401.59;107153;1253;72645;-80
2024/01/05 16:20:21;;;;;;;;;;;;;;;8.19;70.73;100405.61;106586;1253;61839;-81
2024/01/05 16:22:54;;;;;;;;;;;;;;;8.31;69.14;100409.60;106730;1253;61266;-83
2024/01/05 16:25:23;;;;;;;;;;;;;;;8.29;68.22;100411.02;106095;1251;75026;-79
2024/01/05 16:27:57;;;;;;;;;;;;;;;8.30;67.86;100417.50;106043;1251;70408;-83
2024/01/05 16:30:33;;;;;;;;;;;;;;;8.28;67.16;100422.76;106347;1254;73614;-83
2024/01/05 16:33:01;;;;;;;;;;;;;;;8.12;67.59;100434.98;106173;1257;61701;-82
2024/01/05 16:35:35;;;;;;;;;;;;;;;8.17;67.13;100441.07;106728;1256;61238;-79
2024/01/05 16:38:10;;;;;;;;;;;;;;;8.08;65.13;100443.95;106014;1253;73618;-82
2024/01/05 16:40:44;;;;;;;;;;;;;;;7.91;64.12;100450.26;106624;1253;69629;-81
2024/01/05 16:43:12;;;;;;;;;;;;;;;7.77;64.67;100456.30;106126;1256;74624;-79
2024/01/05 16:45:46;;;;;;;;;;;;;;;7.84;64.18;100464.73;105808;1258;61231;-79
2024/01/05 16:48:20;;;;;;;;;;;;;;;7.84;63.54;100464.40;106219;1253;61393;-79
2024/01/05 16:50:55;;;;;;;;;;;;;;;7.80;63.42;100477.33;106401;1253;76606;-79
2024/01/05 16:53:24;;;;;;;;;;;;;;;7.84;62.37;100485.30;106166;1253;68355;-81
2024/01/05 16:55:58;;;;;;;;;;;;;;;7.78;60.43;100485.96;106429;1256;73248;-82
2024/01/05 16:58:32;;;;;;;;;;;;;;;7.80;58.95;100485.25;106029;1257;61664;-80
2024/01/05 17:01:06;;;;;;;;;;;;;;;7.63;58.04;100487.10;106093;1256;61304;-79
2024/01/05 17:03:35;;;;;;;;;;;;;;;7.66;56.90;100493.64;106095;1257;76651;-80
2024/01/05 17:06:09;;;;;;;;;;;;;;;7.61;55.86;100498.44;106560;1253;67093;-82
2024/01/05 17:08:53;;;;;;;;;;;;;;;7.54;54.90;100499.35;106050;1257;72803;-79
2024/01/05 17:11:30;;;;;;;;;;;;;;;7.48;54.76;100505.45;106070;1254;61219;-79
2024/01/05 17:13:59;;;;;;;;;;;;;;;7.38;54.46;100506.38;106804;1254;61272;-80
2024/01/05 17:16:33;;;;;;;;;;;;;;;7.23;54.56;100504.48;106637;1259;76836;-80
2024/01/05 17:19:08;;;;;;;;;;;;;;;7.19;54.13;100511.46;107065;1253;70974;-80
2024/01/05 17:21:39;;;;;;;;;;;;;;;7.23;53.77;100517.26;106543;1254;75009;-80
2024/01/05 17:24:07;;;;;;;;;;;;;;;7.31;53.08;100518.92;106576;1254;60295;-80
2024/01/05 17:26:41;;;;;;;;;;;;;;;7.28;52.74;100521.89;106412;1258;61137;-80
2024/01/05 17:29:15;;;;;;;;;;;;;;;7.26;52.94;100519.41;106436;1259;75849;-81
2024/01/05 17:31:49;;;;;;;;;;;;;;;7.20;52.55;100527.83;106488;1254;67095;-80
2024/01/05 17:34:17;;;;;;;;;;;;;;;7.12;52.87;100540.35;106670;1252;74833;-81
2024/01/05 17:36:52;;;;;;;;;;;;;;;7.04;52.02;100545.36;106400;1254;61266;-81
2024/01/05 17:39:26;;;;;;;;;;;;;;;7.09;50.95;100544.33;106617;1253;61263;-81
2024/01/05 17:42:01;;;;;;;;;;;;;;;7.10;50.17;100543.86;106499;1258;76003;-80
2024/01/05 17:44:29;;;;;;;;;;;;;;;7.01;49.23;100554.35;106545;1254;69877;-81
2024/01/05 17:47:05;;;;;;;;;;;;;;;7.03;48.72;100567.24;106382;1254;73121;-81
2024/01/05 17:49:39;;;;;;;;;;;;;;;7.04;48.69;100568.84;106960;1253;61398;-82
2024/01/05 17:52:11;;;;;;;;;;;;;;;6.92;48.24;100576.55;106594;1253;61346;-82
2024/01/05 17:54:39;;;;;;;;;;;;;;;6.92;48.23;100578.58;106463;1253;76534;-81
2024/01/05 17:57:14;;;;;;;;;;;;;;;6.94;48.03;100582.19;106587;1253;67210;-82
2024/01/05 17:59:48;;;;;;;;;;;;;;;6.88;48.06;100586.30;106791;1257;73826;-82
2024/01/05 18:02:16;;;;;;;;;;;;;;;6.95;48.20;100585.83;106449;1253;61346;-82
2024/01/05 18:04:45;;;;;;;;;;;;;;;6.99;47.71;100591.01;106451;1254;61205;-82
2024/01/05 18:07:19;;;;;;;;;;;;;;;7.00;47.45;100596.56;106487;1253;76190;-82
2024/01/05 18:09:53;;;;;;;;;;;;;;;7.01;47.10;100602.17;106873;1256;69352;-82
2024/01/05 18:12:22;;;;;;;;;;;;;;;6.95;46.67;100603.71;106392;1255;74807;-82
2024/01/05 18:14:56;;;;;;;;;;;;;;;6.91;46.59;100608.98;106525;1254;61237;-82
2024/01/05 18:17:30;;;;;;;;;;;;;;;6.86;46.83;100615.23;106888;1251;61347;-82
2024/01/05 18:20:04;;;;;;;;;;;;;;;6.90;46.42;100624.89;107050;1256;75485;-82
2024/01/05 18:22:33;;;;;;;;;;;;;;;6.90;45.50;100630.11;107147;1253;68993;-81
2024/01/05 18:25:07;;;;;;;;;;;;;;;6.82;45.50;100631.85;106381;1256;75257;-81
2024/01/05 18:27:41;;;;;;;;;;;;;;;6.79;45.15;100633.20;106448;1258;61206;-82
2024/01/05 18:30:09;;;;;;;;;;;;;;;6.60;45.35;100637.92;106486;1253;61551;-81
2024/01/05 18:32:37;;;;;;;;;;;;;;;6.50;44.97;100640.54;106314;1253;75767;-81
2024/01/05 18:35:12;;;;;;;;;;;;;;;6.40;44.54;100644.46;106534;1253;69066;-81
2024/01/05 18:37:45;;;;;;;;;;;;;;;6.30;44.83;100654.02;107128;1253;73566;-81
2024/01/05 18:40:13;;;;;;;;;;;;;;;6.10;44.73;100661.55;106314;1257;61276;-82
2024/01/05 18:42:49;;;;;;;;;;;;;;;5.89;45.20;100667.95;106490;1254;61140;-80
2024/01/05 18:45:22;;;;;;;;;;;;;;;5.83;45.54;100668.34;106351;1251;73449;-81
2024/01/05 18:47:56;;;;;;;;;;;;;;;5.67;45.74;100667.65;106417;1251;70001;-81
2024/01/05 18:50:24;;;;;;;;;;;;;;;5.64;45.15;100667.17;106562;1253;72568;-81
2024/01/05 18:52:58;;;;;;;;;;;;;;;5.61;45.42;100669.83;106824;1253;63183;-82
2024/01/05 18:55:32;;;;;;;;;;;;;;;5.37;45.92;100674.33;106072;1253;61481;-80
2024/01/05 18:58:06;;;;;;;;;;;;;;;5.38;46.18;100683.23;106079;1251;75828;-80
2024/01/05 19:00:34;;;;;;;;;;;;;;;5.40;46.00;100691.29;106474;1253;70644;-80
2024/01/05 19:03:09;;;;;;;;;;;;;;;5.39;46.17;100688.09;106349;1253;72738;-81
2024/01/05 19:05:43;;;;;;;;;;;;;;;5.32;46.35;100691.77;106591;1256;61594;-80
2024/01/05 19:08:17;;;;;;;;;;;;;;;5.34;46.29;100690.64;106574;1251;60936;-80
2024/01/05 19:10:45;;;;;;;;;;;;;;;5.18;46.58;100688.71;106502;1258;76106;-80
2024/01/05 19:13:19;;;;;;;;;;;;;;;5.18;46.66;100692.70;106739;1254;70327;-81
2024/01/05 19:15:54;;;;;;;;;;;;;;;5.17;46.68;100694.71;106573;1254;75609;-80
2024/01/05 19:18:29;;;;;;;;;;;;;;;5.25;46.50;100700.13;106461;1256;61222;-81
2024/01/05 19:20:57;;;;;;;;;;;;;;;5.10;46.65;100699.64;106488;1253;61148;-81
2024/01/05 19:23:31;;;;;;;;;;;;;;;4.96;47.00;100706.91;106431;1253;76877;-80
2024/01/05 19:26:06;;;;;;;;;;;;;;;4.89;47.04;100709.58;106588;1254;69944;-80
2024/01/05 19:28:34;;;;;;;;;;;;;;;5.03;46.99;100716.02;106513;1256;71371;-80
2024/01/05 19:31:08;;;;;;;;;;;;;;;5.01;47.21;100723.73;107781;1252;61138;-80
2024/01/05 19:33:42;;;;;;;;;;;;;;;5.04;46.89;100728.52;106565;1257;61339;-80
2024/01/05 19:36:16;;;;;;;;;;;;;;;5.13;46.81;100732.34;106461;1254;74155;-80
2024/01/05 19:38:44;;;;;;;;;;;;;;;5.28;46.98;100729.78;106429;1253;69597;-81
2024/01/05 19:41:18;;;;;;;;;;;;;;;5.39;46.68;100736.55;106350;1259;73409;-80
2024/01/05 19:43:52;;;;;;;;;;;;;;;5.43;46.59;100738.52;106477;1254;62457;-80
2024/01/05 19:46:25;;;;;;;;;;;;;;;5.45;46.90;100744.91;106454;1257;61161;-80
2024/01/05 19:48:54;;;;;;;;;;;;;;;5.52;46.96;100749.83;106671;1254;76285;-81
2024/01/05 19:51:28;;;;;;;;;;;;;;;5.47;46.31;100755.02;106632;1258;70124;-80
2024/01/05 19:54:03;;;;;;;;;;;;;;;5.38;46.66;100757.23;106844;1259;72901;-79
2024/01/05 19:56:37;;;;;;;;;;;;;;;5.39;46.90;100758.88;106435;1256;62714;-81
2024/01/05 19:59:05;;;;;;;;;;;;;;;5.37;47.05;100762.13;106176;1257;61334;-81
2024/01/05 20:01:44;;;;;;;;;;;;;;;5.32;47.17;100757.10;105912;1254;75801;-80
2024/01/05 20:04:19;;;;;;;;;;;;;;;5.31;47.33;100768.45;106056;1256;70215;-79
2024/01/05 20:06:54;;;;;;;;;;;;;;;5.20;47.37;100778.98;106924;1254;73402;-80
2024/01/05 20:09:22;;;;;;;;;;;;;;;5.29;47.46;100778.04;106346;1254;61218;-79
2024/01/05 20:11:56;;;;;;;;;;;;;;;5.38;47.10;100781.33;106605;1258;61228;-80
2024/01/05 20:14:34;;;;;;;;;;;;;;;5.27;47.67;100780.48;106552;1251;75308;-79
2024/01/05 20:17:03;;;;;;;;;;;;;;;5.37;47.55;100785.43;106402;1251;69525;-80
2024/01/05 20:19:33;;;;;;;;;;;;;;;5.43;47.61;100787.80;106410;1254;72100;-79
2024/01/05 20:22:07;;;;;;;;;;;;;;;5.57;47.23;100783.27;106367;1256;61329;-79
2024/01/05 20:24:41;;;;;;;;;;;;;;;5.63;47.35;100785.19;106765;1254;61246;-80
2024/01/05 20:27:11;;;;;;;;;;;;;;;5.64;47.14;100788.77;106658;1253;76618;-79
2024/01/05 20:29:45;;;;;;;;;;;;;;;5.61;47.13;100788.79;106602;1253;69903;-80
